sensor_id;sensor_type;location;lat;lon;timestamp;pressure;altitude;pressure_sealevel;temperature;humidity
29815;BME280;16708;50.426;7.664;2023-07-13T00:03:39;987.34;;;18.00;90.73
29815;BME280;16708;50.426;7.664;2023-07-13T00:08:33;987.42;;;17.91;92.13
29815;BME280;16708;50.426;7.664;2023-07-13T00:13:28;987.40;;;17.80;92.70
29815;BME280;16708;50.426;7.664;2023-07-13T00:18:22;987.48;;;17.61;100.00
29815;BME280;16708;50.426;7.664;2023-07-13T00:23:16;987.28;;;17.44;96.57
29815;BME280;16708;50.426;7.664;2023-07-13T00:28:11;987.20;;;17.36;99.00
29815;BME280;16708;50.426;7.664;2023-07-13T00:33:05;987.21;;;17.09;100.00
29815;BME280;16708;50.426;7.664;2023-07-13T00:37:59;987.16;;;16.74;100.00
29815;BME280;16708;50.426;7.664;2023-07-13T00:42:53;987.14;;;16.68;100.00
29815;BME280;16708;50.426;7.664;2023-07-13T00:47:48;987.24;;;16.58;100.00
29815;BME280;16708;50.426;7.664;2023-07-13T00:52:42;987.25;;;16.25;100.00
29815;BME280;16708;50.426;7.664;2023-07-13T00:57:36;987.28;;;15.99;100.00
29815;BME280;16708;50.426;7.664;2023-07-13T01:02:31;987.35;;;15.86;100.00
29815;BME280;16708;50.426;7.664;2023-07-13T01:07:25;987.28;;;15.59;100.00
29815;BME280;16708;50.426;7.664;2023-07-13T01:12:17;987.21;;;15.36;100.00
29815;BME280;16708;50.426;7.664;2023-07-13T01:17:11;987.33;;;15.21;100.00
29815;BME280;16708;50.426;7.664;2023-07-13T01:22:06;987.29;;;15.04;100.00
29815;BME280;16708;50.426;7.664;2023-07-13T01:27:00;987.26;;;14.90;100.00
29815;BME280;16708;50.426;7.664;2023-07-13T01:31:54;987.26;;;14.75;100.00
29815;BME280;16708;50.426;7.664;2023-07-13T01:36:48;987.26;;;14.60;100.00
29815;BME280;16708;50.426;7.664;2023-07-13T01:41:43;987.22;;;14.35;100.00
29815;BME280;16708;50.426;7.664;2023-07-13T01:46:37;987.15;;;14.27;100.00
29815;BME280;16708;50.426;7.664;2023-07-13T01:51:31;987.21;;;14.26;100.00
29815;BME280;16708;50.426;7.664;2023-07-13T01:56:26;987.13;;;14.14;100.00
29815;BME280;16708;50.426;7.664;2023-07-13T02:01:20;987.15;;;13.98;100.00
29815;BME280;16708;50.426;7.664;2023-07-13T02:06:14;987.25;;;13.96;100.00
29815;BME280;16708;50.426;7.664;2023-07-13T02:11:08;987.24;;;13.90;100.00
29815;BME280;16708;50.426;7.664;2023-07-13T02:16:03;987.24;;;13.86;100.00
29815;BME280;16708;50.426;7.664;2023-07-13T02:20:57;987.34;;;13.65;100.00
29815;BME280;16708;50.426;7.664;2023-07-13T02:25:50;987.36;;;13.55;100.00
29815;BME280;16708;50.426;7.664;2023-07-13T02:30:44;987.45;;;13.50;100.00
29815;BME280;16708;50.426;7.664;2023-07-13T02:35:38;987.37;;;13.35;100.00
29815;BME280;16708;50.426;7.664;2023-07-13T02:40:33;987.32;;;13.28;100.00
29815;BME280;16708;50.426;7.664;2023-07-13T02:45:27;987.42;;;13.15;100.00
29815;BME280;16708;50.426;7.664;2023-07-13T02:50:22;987.46;;;13.08;100.00
29815;BME280;16708;50.426;7.664;2023-07-13T02:55:16;987.36;;;12.93;100.00
29815;BME280;16708;50.426;7.664;2023-07-13T03:00:10;987.48;;;12.87;100.00
29815;BME280;16708;50.426;7.664;2023-07-13T03:05:05;987.42;;;12.86;100.00
29815;BME280;16708;50.426;7.664;2023-07-13T03:09:59;987.41;;;12.80;100.00
29815;BME280;16708;50.426;7.664;2023-07-13T03:14:54;987.43;;;12.78;100.00
29815;BME280;16708;50.426;7.664;2023-07-13T03:19:47;987.40;;;12.66;100.00
29815;BME280;16708;50.426;7.664;2023-07-13T03:24:41;987.44;;;12.53;100.00
29815;BME280;16708;50.426;7.664;2023-07-13T03:29:35;987.50;;;12.47;100.00
29815;BME280;16708;50.426;7.664;2023-07-13T03:34:30;987.54;;;12.43;100.00
29815;BME280;16708;50.426;7.664;2023-07-13T03:39:24;987.55;;;12.47;100.00
29815;BME280;16708;50.426;7.664;2023-07-13T03:44:18;987.70;;;12.61;100.00
29815;BME280;16708;50.426;7.664;2023-07-13T03:49:12;987.73;;;12.61;100.00
29815;BME280;16708;50.426;7.664;2023-07-13T03:54:07;987.70;;;12.56;100.00
29815;BME280;16708;50.426;7.664;2023-07-13T03:59:01;987.75;;;12.56;100.00
29815;BME280;16708;50.426;7.664;2023-07-13T04:03:55;987.78;;;12.48;100.00
29815;BME280;16708;50.426;7.664;2023-07-13T04:08:48;987.75;;;12.56;100.00
29815;BME280;16708;50.426;7.664;2023-07-13T04:13:43;987.86;;;12.61;100.00
29815;BME280;16708;50.426;7.664;2023-07-13T04:18:37;987.80;;;12.75;100.00
29815;BME280;16708;50.426;7.664;2023-07-13T04:23:31;987.88;;;12.99;100.00
29815;BME280;16708;50.426;7.664;2023-07-13T04:28:26;987.87;;;13.20;100.00
29815;BME280;16708;50.426;7.664;2023-07-13T04:33:20;987.88;;;13.32;100.00
29815;BME280;16708;50.426;7.664;2023-07-13T04:38:15;987.94;;;13.42;100.00
29815;BME280;16708;50.426;7.664;2023-07-13T04:43:09;987.88;;;13.66;100.00
29815;BME280;16708;50.426;7.664;2023-07-13T04:48:04;987.87;;;13.97;100.00
29815;BME280;16708;50.426;7.664;2023-07-13T04:52:59;987.89;;;14.36;100.00
29815;BME280;16708;50.426;7.664;2023-07-13T04:57:49;988.02;;;14.65;100.00
29815;BME280;16708;50.426;7.664;2023-07-13T05:02:44;988.06;;;14.95;100.00
29815;BME280;16708;50.426;7.664;2023-07-13T05:07:39;988.11;;;15.14;100.00
29815;BME280;16708;50.426;7.664;2023-07-13T05:12:33;988.17;;;15.32;100.00
29815;BME280;16708;50.426;7.664;2023-07-13T05:17:28;988.17;;;15.54;100.00
29815;BME280;16708;50.426;7.664;2023-07-13T05:22:22;988.09;;;15.76;100.00
29815;BME280;16708;50.426;7.664;2023-07-13T05:27:17;988.08;;;16.18;100.00
29815;BME280;16708;50.426;7.664;2023-07-13T05:32:11;988.11;;;16.15;100.00
29815;BME280;16708;50.426;7.664;2023-07-13T05:37:06;988.20;;;16.18;100.00
29815;BME280;16708;50.426;7.664;2023-07-13T05:42:00;988.15;;;16.23;100.00
29815;BME280;16708;50.426;7.664;2023-07-13T05:46:55;988.24;;;16.13;100.00
29815;BME280;16708;50.426;7.664;2023-07-13T05:51:49;988.26;;;16.17;100.00
29815;BME280;16708;50.426;7.664;2023-07-13T05:56:44;988.31;;;16.25;100.00
29815;BME280;16708;50.426;7.664;2023-07-13T06:01:38;988.27;;;16.43;100.00
29815;BME280;16708;50.426;7.664;2023-07-13T06:06:32;988.36;;;16.54;100.00
29815;BME280;16708;50.426;7.664;2023-07-13T06:11:27;988.39;;;16.70;100.00
29815;BME280;16708;50.426;7.664;2023-07-13T06:16:21;988.40;;;16.64;100.00
29815;BME280;16708;50.426;7.664;2023-07-13T06:21:15;988.33;;;16.87;100.00
29815;BME280;16708;50.426;7.664;2023-07-13T06:26:09;988.37;;;17.14;100.00
29815;BME280;16708;50.426;7.664;2023-07-13T06:31:04;988.43;;;16.87;100.00
29815;BME280;16708;50.426;7.664;2023-07-13T06:35:57;988.49;;;16.90;100.00
29815;BME280;16708;50.426;7.664;2023-07-13T06:40:52;988.50;;;16.91;100.00
29815;BME280;16708;50.426;7.664;2023-07-13T06:45:46;988.55;;;17.12;100.00
29815;BME280;16708;50.426;7.664;2023-07-13T06:50:41;988.60;;;17.10;100.00
29815;BME280;16708;50.426;7.664;2023-07-13T06:55:36;988.62;;;17.13;100.00
29815;BME280;16708;50.426;7.664;2023-07-13T07:00:30;988.60;;;17.48;100.00
29815;BME280;16708;50.426;7.664;2023-07-13T07:05:25;988.67;;;17.35;100.00
29815;BME280;16708;50.426;7.664;2023-07-13T07:10:19;988.69;;;17.38;100.00
29815;BME280;16708;50.426;7.664;2023-07-13T07:15:13;988.68;;;17.26;100.00
29815;BME280;16708;50.426;7.664;2023-07-13T07:20:08;988.69;;;17.75;100.00
29815;BME280;16708;50.426;7.664;2023-07-13T07:25:02;988.71;;;17.97;100.00
29815;BME280;16708;50.426;7.664;2023-07-13T07:29:57;988.83;;;18.48;100.00
29815;BME280;16708;50.426;7.664;2023-07-13T07:34:51;988.77;;;18.41;100.00
29815;BME280;16708;50.426;7.664;2023-07-13T07:39:45;988.85;;;17.93;100.00
29815;BME280;16708;50.426;7.664;2023-07-13T07:44:39;988.77;;;17.88;100.00
29815;BME280;16708;50.426;7.664;2023-07-13T07:49:34;988.83;;;17.95;100.00
29815;BME280;16708;50.426;7.664;2023-07-13T07:54:28;988.75;;;18.65;100.00
29815;BME280;16708;50.426;7.664;2023-07-13T07:59:23;988.75;;;18.38;100.00
29815;BME280;16708;50.426;7.664;2023-07-13T08:04:17;988.75;;;18.78;100.00
29815;BME280;16708;50.426;7.664;2023-07-13T08:09:11;988.74;;;18.76;100.00
29815;BME280;16708;50.426;7.664;2023-07-13T08:14:05;988.61;;;19.23;100.00
29815;BME280;16708;50.426;7.664;2023-07-13T08:18:59;988.60;;;19.31;100.00
29815;BME280;16708;50.426;7.664;2023-07-13T08:23:54;988.65;;;20.08;100.00
29815;BME280;16708;50.426;7.664;2023-07-13T08:28:48;988.70;;;20.09;93.42
29815;BME280;16708;50.426;7.664;2023-07-13T08:33:43;988.66;;;20.46;86.52
29815;BME280;16708;50.426;7.664;2023-07-13T08:38:38;988.56;;;21.44;85.12
29815;BME280;16708;50.426;7.664;2023-07-13T08:48:26;988.50;;;21.53;81.56
29815;BME280;16708;50.426;7.664;2023-07-13T08:53:21;988.52;;;21.57;67.47
29815;BME280;16708;50.426;7.664;2023-07-13T08:58:16;988.41;;;21.36;74.30
29815;BME280;16708;50.426;7.664;2023-07-13T09:03:10;988.40;;;21.53;61.87
29815;BME280;16708;50.426;7.664;2023-07-13T09:08:04;988.57;;;21.60;65.90
29815;BME280;16708;50.426;7.664;2023-07-13T09:12:58;988.42;;;21.32;64.75
29815;BME280;16708;50.426;7.664;2023-07-13T09:17:52;988.44;;;21.64;61.07
29815;BME280;16708;50.426;7.664;2023-07-13T09:22:47;988.44;;;21.36;59.97
29815;BME280;16708;50.426;7.664;2023-07-13T09:32:35;988.42;;;22.21;56.52
29815;BME280;16708;50.426;7.664;2023-07-13T09:37:29;988.40;;;22.51;56.08
29815;BME280;16708;50.426;7.664;2023-07-13T09:42:23;988.50;;;22.34;52.41
29815;BME280;16708;50.426;7.664;2023-07-13T09:47:17;988.36;;;22.71;51.61
29815;BME280;16708;50.426;7.664;2023-07-13T09:52:11;988.42;;;22.24;51.06
29815;BME280;16708;50.426;7.664;2023-07-13T09:57:05;988.38;;;23.11;47.11
29815;BME280;16708;50.426;7.664;2023-07-13T10:02:00;988.36;;;23.80;47.23
29815;BME280;16708;50.426;7.664;2023-07-13T10:06:55;988.25;;;25.23;41.10
29815;BME280;16708;50.426;7.664;2023-07-13T10:11:51;988.50;;;24.36;42.29
29815;BME280;16708;50.426;7.664;2023-07-13T10:16:46;988.45;;;25.84;39.51
29815;BME280;16708;50.426;7.664;2023-07-13T10:21:42;988.36;;;25.90;39.37
29815;BME280;16708;50.426;7.664;2023-07-13T10:31:32;988.38;;;26.95;34.59
29815;BME280;16708;50.426;7.664;2023-07-13T10:36:27;988.39;;;25.32;37.03
29815;BME280;16708;50.426;7.664;2023-07-13T10:41:21;988.45;;;28.28;33.09
29815;BME280;16708;50.426;7.664;2023-07-13T10:46:17;988.43;;;26.11;36.10
29815;BME280;16708;50.426;7.664;2023-07-13T10:51:10;988.43;;;24.06;38.41
29815;BME280;16708;50.426;7.664;2023-07-13T11:05:50;988.60;;;24.00;40.54
29815;BME280;16708;50.426;7.664;2023-07-13T11:30:19;988.46;;;23.09;44.16
29815;BME280;16708;50.426;7.664;2023-07-13T11:35:13;988.63;;;23.15;47.40
29815;BME280;16708;50.426;7.664;2023-07-13T11:45:02;988.69;;;23.09;43.73
29815;BME280;16708;50.426;7.664;2023-07-13T11:49:56;988.78;;;22.99;45.37
29815;BME280;16708;50.426;7.664;2023-07-13T11:54:50;988.67;;;22.90;46.21
29815;BME280;16708;50.426;7.664;2023-07-13T12:04:39;988.82;;;22.92;47.44
29815;BME280;16708;50.426;7.664;2023-07-13T12:09:33;988.79;;;22.56;49.33
29815;BME280;16708;50.426;7.664;2023-07-13T12:14:27;988.85;;;22.76;49.93
29815;BME280;16708;50.426;7.664;2023-07-13T12:24:16;988.81;;;22.95;46.42
29815;BME280;16708;50.426;7.664;2023-07-13T12:29:10;988.81;;;23.00;45.63
29815;BME280;16708;50.426;7.664;2023-07-13T12:38:59;988.96;;;22.49;45.40
29815;BME280;16708;50.426;7.664;2023-07-13T12:43:52;989.02;;;22.54;47.83
29815;BME280;16708;50.426;7.664;2023-07-13T12:48:46;989.04;;;22.05;49.75
29815;BME280;16708;50.426;7.664;2023-07-13T12:53:41;989.07;;;22.31;49.72
29815;BME280;16708;50.426;7.664;2023-07-13T13:03:29;989.11;;;22.94;48.80
29815;BME280;16708;50.426;7.664;2023-07-13T13:13:18;989.13;;;23.03;50.17
29815;BME280;16708;50.426;7.664;2023-07-13T13:18:13;989.12;;;23.29;49.49
29815;BME280;16708;50.426;7.664;2023-07-13T13:23:07;989.14;;;22.94;50.30
29815;BME280;16708;50.426;7.664;2023-07-13T13:28:02;989.19;;;22.81;49.39
29815;BME280;16708;50.426;7.664;2023-07-13T13:32:56;989.19;;;22.53;53.16
29815;BME280;16708;50.426;7.664;2023-07-13T13:37:51;989.09;;;23.21;51.12
29815;BME280;16708;50.426;7.664;2023-07-13T13:42:43;989.21;;;23.52;49.70
29815;BME280;16708;50.426;7.664;2023-07-13T13:47:37;989.17;;;23.31;45.26
29815;BME280;16708;50.426;7.664;2023-07-13T13:52:31;989.13;;;23.52;44.31
29815;BME280;16708;50.426;7.664;2023-07-13T13:57:26;989.18;;;22.87;48.74
29815;BME280;16708;50.426;7.664;2023-07-13T14:02:20;989.21;;;23.21;47.11
29815;BME280;16708;50.426;7.664;2023-07-13T14:12:09;989.22;;;22.85;46.77
29815;BME280;16708;50.426;7.664;2023-07-13T14:17:03;989.33;;;23.35;49.29
29815;BME280;16708;50.426;7.664;2023-07-13T14:21:58;989.28;;;23.83;45.63
29815;BME280;16708;50.426;7.664;2023-07-13T14:26:52;989.26;;;23.29;44.76
29815;BME280;16708;50.426;7.664;2023-07-13T14:31:46;989.19;;;23.17;48.24
29815;BME280;16708;50.426;7.664;2023-07-13T14:36:41;989.25;;;24.10;46.03
29815;BME280;16708;50.426;7.664;2023-07-13T14:41:36;989.21;;;24.60;42.89
29815;BME280;16708;50.426;7.664;2023-07-13T14:46:31;989.29;;;24.62;45.23
29815;BME280;16708;50.426;7.664;2023-07-13T14:51:25;989.22;;;24.51;46.52
29815;BME280;16708;50.426;7.664;2023-07-13T14:56:20;989.31;;;24.84;41.90
29815;BME280;16708;50.426;7.664;2023-07-13T15:01:15;989.25;;;25.04;43.67
29815;BME280;16708;50.426;7.664;2023-07-13T15:06:09;989.30;;;24.96;42.95
29815;BME280;16708;50.426;7.664;2023-07-13T15:11:04;989.13;;;24.75;41.81
29815;BME280;16708;50.426;7.664;2023-07-13T15:15:58;989.22;;;26.00;39.49
29815;BME280;16708;50.426;7.664;2023-07-13T15:20:53;989.17;;;24.64;45.11
29815;BME280;16708;50.426;7.664;2023-07-13T15:25:46;989.12;;;24.27;44.39
29815;BME280;16708;50.426;7.664;2023-07-13T15:30:40;989.09;;;24.56;43.90
29815;BME280;16708;50.426;7.664;2023-07-13T15:35:34;989.18;;;24.03;44.87
29815;BME280;16708;50.426;7.664;2023-07-13T15:40:27;989.09;;;25.02;42.80
29815;BME280;16708;50.426;7.664;2023-07-13T15:45:22;989.10;;;26.86;40.34
29815;BME280;16708;50.426;7.664;2023-07-13T15:50:17;989.06;;;26.31;40.14
29815;BME280;16708;50.426;7.664;2023-07-13T15:55:11;989.07;;;24.34;42.55
29815;BME280;16708;50.426;7.664;2023-07-13T16:00:04;989.10;;;24.12;43.64
29815;BME280;16708;50.426;7.664;2023-07-13T16:04:58;988.99;;;25.67;39.19
29815;BME280;16708;50.426;7.664;2023-07-13T16:09:53;989.00;;;27.00;37.52
29815;BME280;16708;50.426;7.664;2023-07-13T16:19:42;989.00;;;24.20;41.17
29815;BME280;16708;50.426;7.664;2023-07-13T16:24:36;989.05;;;26.91;35.86
29815;BME280;16708;50.426;7.664;2023-07-13T16:34:28;988.83;;;28.66;32.62
29815;BME280;16708;50.426;7.664;2023-07-13T16:44:15;988.95;;;25.00;40.31
29815;BME280;16708;50.426;7.664;2023-07-13T16:54:01;988.78;;;23.62;49.17
29815;BME280;16708;50.426;7.664;2023-07-13T16:58:55;988.84;;;23.20;49.96
29815;BME280;16708;50.426;7.664;2023-07-13T17:03:49;988.88;;;23.16;50.33
29815;BME280;16708;50.426;7.664;2023-07-13T17:08:43;988.93;;;23.89;48.27
29815;BME280;16708;50.426;7.664;2023-07-13T17:13:37;989.01;;;23.91;50.37
29815;BME280;16708;50.426;7.664;2023-07-13T17:23:25;988.86;;;26.81;39.42
29815;BME280;16708;50.426;7.664;2023-07-13T17:28:19;988.78;;;27.70;38.70
29815;BME280;16708;50.426;7.664;2023-07-13T17:38:09;988.87;;;24.62;45.15
29815;BME280;16708;50.426;7.664;2023-07-13T17:43:02;988.94;;;25.55;45.46
29815;BME280;16708;50.426;7.664;2023-07-13T17:47:54;951.35;;;0.00;50.67
29815;BME280;16708;50.426;7.664;2023-07-13T17:57:41;988.90;;;22.13;55.32
29815;BME280;16708;50.426;7.664;2023-07-13T18:02:35;988.98;;;21.97;54.67
29815;BME280;16708;50.426;7.664;2023-07-13T18:07:29;988.92;;;21.69;57.16
29815;BME280;16708;50.426;7.664;2023-07-13T18:12:21;988.97;;;21.65;55.11
29815;BME280;16708;50.426;7.664;2023-07-13T18:17:13;988.95;;;21.67;56.73
29815;BME280;16708;50.426;7.664;2023-07-13T18:22:07;989.03;;;21.66;56.15
29815;BME280;16708;50.426;7.664;2023-07-13T18:27:01;988.94;;;21.60;58.52
29815;BME280;16708;50.426;7.664;2023-07-13T18:31:55;989.02;;;21.54;58.95
29815;BME280;16708;50.426;7.664;2023-07-13T18:36:49;989.05;;;21.57;58.37
29815;BME280;16708;50.426;7.664;2023-07-13T18:41:43;989.15;;;21.60;62.45
29815;BME280;16708;50.426;7.664;2023-07-13T18:46:37;989.22;;;21.38;67.40
29815;BME280;16708;50.426;7.664;2023-07-13T18:51:31;989.28;;;21.29;72.01
29815;BME280;16708;50.426;7.664;2023-07-13T18:56:26;989.34;;;20.86;79.93
29815;BME280;16708;50.426;7.664;2023-07-13T19:01:19;989.41;;;20.48;87.67
29815;BME280;16708;50.426;7.664;2023-07-13T19:06:13;989.34;;;20.19;94.40
29815;BME280;16708;50.426;7.664;2023-07-13T19:11:08;989.43;;;19.89;100.00
29815;BME280;16708;50.426;7.664;2023-07-13T19:16:02;989.40;;;19.71;100.00
29815;BME280;16708;50.426;7.664;2023-07-13T19:20:55;989.49;;;19.44;100.00
29815;BME280;16708;50.426;7.664;2023-07-13T19:25:49;989.48;;;19.15;100.00
29815;BME280;16708;50.426;7.664;2023-07-13T19:30:43;989.56;;;18.95;100.00
29815;BME280;16708;50.426;7.664;2023-07-13T19:35:37;989.64;;;18.69;100.00
29815;BME280;16708;50.426;7.664;2023-07-13T19:40:31;989.70;;;18.59;100.00
29815;BME280;16708;50.426;7.664;2023-07-13T19:45:25;989.79;;;18.51;100.00
29815;BME280;16708;50.426;7.664;2023-07-13T19:50:20;989.86;;;18.41;100.00
29815;BME280;16708;50.426;7.664;2023-07-13T19:55:13;989.98;;;18.36;100.00
29815;BME280;16708;50.426;7.664;2023-07-13T20:00:08;990.03;;;18.15;100.00
29815;BME280;16708;50.426;7.664;2023-07-13T20:14:50;990.13;;;17.40;100.00
29815;BME280;16708;50.426;7.664;2023-07-13T20:24:37;990.07;;;17.06;100.00
29815;BME280;16708;50.426;7.664;2023-07-13T20:29:31;990.14;;;16.90;100.00
29815;BME280;16708;50.426;7.664;2023-07-13T20:34:25;990.14;;;16.75;100.00
29815;BME280;16708;50.426;7.664;2023-07-13T20:39:20;990.05;;;16.57;100.00
29815;BME280;16708;50.426;7.664;2023-07-13T20:44:14;990.15;;;16.51;100.00
29815;BME280;16708;50.426;7.664;2023-07-13T20:49:08;990.13;;;16.48;100.00
29815;BME280;16708;50.426;7.664;2023-07-13T20:54:03;990.12;;;16.39;100.00
29815;BME280;16708;50.426;7.664;2023-07-13T20:58:57;990.14;;;16.27;100.00
29815;BME280;16708;50.426;7.664;2023-07-13T21:08:44;990.26;;;16.01;100.00
29815;BME280;16708;50.426;7.664;2023-07-13T21:13:38;990.26;;;15.94;100.00
29815;BME280;16708;50.426;7.664;2023-07-13T21:23:27;990.29;;;15.88;100.00
29815;BME280;16708;50.426;7.664;2023-07-13T21:28:22;990.28;;;15.88;100.00
29815;BME280;16708;50.426;7.664;2023-07-13T21:38:09;990.32;;;15.49;100.00
29815;BME280;16708;50.426;7.664;2023-07-13T21:43:03;990.40;;;15.41;100.00
29815;BME280;16708;50.426;7.664;2023-07-13T21:47:56;990.39;;;15.31;100.00
29815;BME280;16708;50.426;7.664;2023-07-13T21:52:51;990.48;;;15.02;100.00
29815;BME280;16708;50.426;7.664;2023-07-13T21:57:44;990.49;;;15.05;100.00
29815;BME280;16708;50.426;7.664;2023-07-13T22:07:32;990.46;;;14.89;100.00
29815;BME280;16708;50.426;7.664;2023-07-13T22:12:26;990.45;;;14.83;100.00
29815;BME280;16708;50.426;7.664;2023-07-13T22:17:21;990.37;;;14.78;100.00
29815;BME280;16708;50.426;7.664;2023-07-13T22:22:15;990.48;;;14.66;100.00
29815;BME280;16708;50.426;7.664;2023-07-13T22:27:09;990.45;;;14.58;100.00
29815;BME280;16708;50.426;7.664;2023-07-13T22:32:04;990.47;;;14.51;100.00
29815;BME280;16708;50.426;7.664;2023-07-13T22:36:57;990.37;;;14.44;100.00
29815;BME280;16708;50.426;7.664;2023-07-13T22:41:51;990.46;;;14.50;100.00
29815;BME280;16708;50.426;7.664;2023-07-13T22:51:40;990.40;;;14.42;100.00
29815;BME280;16708;50.426;7.664;2023-07-13T22:56:34;990.32;;;14.34;100.00
29815;BME280;16708;50.426;7.664;2023-07-13T23:01:28;990.30;;;14.33;100.00
29815;BME280;16708;50.426;7.664;2023-07-13T23:06:23;990.39;;;14.26;100.00
29815;BME280;16708;50.426;7.664;2023-07-13T23:11:17;990.40;;;14.10;100.00
29815;BME280;16708;50.426;7.664;2023-07-13T23:16:14;990.37;;;13.99;100.00
29815;BME280;16708;50.426;7.664;2023-07-13T23:21:06;990.29;;;13.81;100.00
29815;BME280;16708;50.426;7.664;2023-07-13T23:26:00;990.31;;;13.75;100.00
29815;BME280;16708;50.426;7.664;2023-07-13T23:30:54;990.28;;;13.76;100.00
29815;BME280;16708;50.426;7.664;2023-07-13T23:40:42;990.15;;;13.63;100.00
29815;BME280;16708;50.426;7.664;2023-07-13T23:50:31;990.06;;;13.54;100.00
29815;BME280;16708;50.426;7.664;2023-07-13T23:55:24;989.98;;;13.47;100.00
